createdAt,value
2022-10-07T00:03:48.022Z,1027.21
2022-10-07T00:08:55.251Z,1027.21
2022-10-07T00:14:02.550Z,1027.25
2022-10-07T00:19:09.728Z,1027.27
2022-10-07T00:24:17.042Z,1027.19
2022-10-07T00:29:24.324Z,1027.20
2022-10-07T00:34:31.609Z,1027.15
2022-10-07T00:39:38.813Z,1027.14
2022-10-07T00:44:46.066Z,1027.13
2022-10-07T00:49:53.226Z,1027.06
2022-10-07T00:55:00.431Z,1027.07
2022-10-07T01:00:07.923Z,1027.09
2022-10-07T01:05:15.081Z,1027.02
2022-10-07T01:10:22.262Z,1026.97
2022-10-07T01:15:29.484Z,1026.90
2022-10-07T01:20:36.663Z,1026.92
2022-10-07T01:25:43.834Z,1026.88
2022-10-07T01:30:51.110Z,1026.83
2022-10-07T01:35:58.275Z,1026.75
2022-10-07T01:41:05.410Z,1026.75
2022-10-07T01:46:12.955Z,1026.78
2022-10-07T01:51:20.102Z,1026.70
2022-10-07T01:56:27.305Z,1026.68
2022-10-07T02:01:34.660Z,1026.66
2022-10-07T02:06:41.816Z,1026.58
2022-10-07T02:11:49.019Z,1026.56
2022-10-07T02:16:56.259Z,1026.49
2022-10-07T02:22:03.402Z,1026.44
2022-10-07T02:27:10.625Z,1026.37
2022-10-07T02:32:17.860Z,1026.32
2022-10-07T02:37:25.000Z,1026.29
2022-10-07T02:42:32.246Z,1026.27
2022-10-07T02:47:39.493Z,1026.23
2022-10-07T02:52:46.670Z,1026.21
2022-10-07T02:57:53.877Z,1026.11
2022-10-07T03:03:01.158Z,1026.10
2022-10-07T03:08:08.291Z,1026.06
2022-10-07T03:13:15.542Z,1026.07
2022-10-07T03:18:22.719Z,1026.11
2022-10-07T03:23:29.956Z,1026.16
2022-10-07T03:28:37.289Z,1026.15
2022-10-07T03:33:44.500Z,1026.07
2022-10-07T03:38:51.721Z,1026.04
2022-10-07T03:43:58.926Z,1026.08
2022-10-07T03:49:06.165Z,1026.05
2022-10-07T03:54:13.373Z,1026.06
2022-10-07T03:59:20.557Z,1026.07
2022-10-07T04:04:27.860Z,1026.05
2022-10-07T04:09:35.083Z,1026.06
2022-10-07T04:14:42.236Z,1026.05
2022-10-07T04:19:49.471Z,1026.06
2022-10-07T04:24:56.748Z,1026.02
2022-10-07T04:30:04.024Z,1025.93
2022-10-07T04:35:11.198Z,1025.91
2022-10-07T04:40:18.675Z,1025.94
2022-10-07T04:45:25.871Z,1025.92
2022-10-07T04:50:33.115Z,1025.87
2022-10-07T04:55:40.246Z,1025.85
2022-10-07T05:00:47.644Z,1025.90
2022-10-07T05:05:54.741Z,1025.90
2022-10-07T05:11:01.914Z,1025.82
2022-10-07T05:16:09.186Z,1025.85
2022-10-07T05:21:16.355Z,1025.80
2022-10-07T05:26:23.481Z,1025.83
2022-10-07T05:31:30.819Z,1025.85
2022-10-07T05:36:37.960Z,1025.82
2022-10-07T05:41:46.091Z,1025.86
2022-10-07T05:46:52.855Z,1025.83
2022-10-07T05:52:00.195Z,1025.78
2022-10-07T05:57:07.367Z,1025.80
2022-10-07T06:02:14.983Z,1025.86
2022-10-07T06:07:24.513Z,1025.85
2022-10-07T06:12:29.398Z,1025.88
2022-10-07T06:17:36.634Z,1025.88
2022-10-07T06:22:43.936Z,1025.90
2022-10-07T06:27:54.134Z,1025.93
2022-10-07T06:32:58.530Z,1025.90
2022-10-07T06:38:05.789Z,1025.88
2022-10-07T06:43:13.233Z,1026.01
2022-10-07T06:48:20.495Z,1026.00
2022-10-07T06:53:27.830Z,1025.97
2022-10-07T06:58:34.993Z,1026.01
2022-10-07T07:03:42.204Z,1025.95
2022-10-07T07:08:49.502Z,1026.00
2022-10-07T07:13:56.749Z,1026.03
2022-10-07T07:19:03.934Z,1026.01
2022-10-07T07:24:11.191Z,1025.99
2022-10-07T07:29:18.366Z,1026.05
2022-10-07T07:34:25.598Z,1026.03
2022-10-07T07:39:32.822Z,1025.98
2022-10-07T07:44:40.273Z,1025.94
2022-10-07T07:49:47.503Z,1025.91
2022-10-07T07:54:54.816Z,1025.90
2022-10-07T08:00:02.078Z,1025.84
2022-10-07T08:05:09.360Z,1025.89
2022-10-07T08:10:16.593Z,1025.83
2022-10-07T08:15:23.806Z,1025.91
2022-10-07T08:20:31.055Z,1025.82
2022-10-07T08:25:38.261Z,1025.89
2022-10-07T08:30:45.594Z,1025.76
2022-10-07T08:35:52.748Z,1025.73
2022-10-07T08:40:59.990Z,1025.65
2022-10-07T08:46:07.221Z,1025.62
2022-10-07T08:51:14.423Z,1025.55
2022-10-07T08:56:21.695Z,1025.52
2022-10-07T09:01:28.987Z,1025.47
2022-10-07T09:06:36.114Z,1025.49
2022-10-07T09:11:43.344Z,1025.42
2022-10-07T09:16:50.649Z,1025.28
2022-10-07T09:21:57.866Z,1025.22
2022-10-07T09:27:05.073Z,1025.13
2022-10-07T09:32:12.271Z,1025.05
2022-10-07T09:37:19.488Z,1024.97
2022-10-07T09:42:26.786Z,1025.00
2022-10-07T09:47:33.942Z,1024.99
2022-10-07T09:52:41.198Z,1024.91
2022-10-07T09:57:48.665Z,1024.89
2022-10-07T10:02:55.738Z,1024.83
2022-10-07T10:08:02.912Z,1024.77
2022-10-07T10:13:10.126Z,1024.75
2022-10-07T10:18:17.493Z,1024.65
2022-10-07T10:23:24.770Z,1024.58
2022-10-07T10:28:32.123Z,1024.54
2022-10-07T10:33:39.212Z,1024.50
2022-10-07T10:38:46.397Z,1024.49
2022-10-07T10:43:53.634Z,1024.41
2022-10-07T10:49:01.064Z,1024.39
2022-10-07T10:54:08.318Z,1024.32
2022-10-07T10:59:15.543Z,1024.21
2022-10-07T11:04:22.714Z,1024.14
2022-10-07T11:09:30.733Z,1024.19
2022-10-07T11:14:37.205Z,1024.10
2022-10-07T11:19:44.384Z,1023.98
2022-10-07T11:24:51.547Z,1023.96
2022-10-07T11:29:58.742Z,1023.80
2022-10-07T11:35:05.877Z,1023.79
2022-10-07T11:40:13.109Z,1023.78
2022-10-07T11:45:20.334Z,1023.66
2022-10-07T11:50:27.557Z,1023.53
2022-10-07T11:55:34.759Z,1023.47
2022-10-07T12:00:42.063Z,1023.51
2022-10-07T12:05:49.279Z,1023.44
2022-10-07T12:10:56.494Z,1023.33
2022-10-07T12:16:03.848Z,1023.17
2022-10-07T12:21:10.889Z,1023.03
2022-10-07T12:26:18.087Z,1023.00
2022-10-07T12:31:25.316Z,1022.98
2022-10-07T12:36:32.419Z,1022.88
2022-10-07T12:41:40.425Z,1022.80
2022-10-07T12:46:46.806Z,1022.74
2022-10-07T12:51:54.013Z,1022.72
2022-10-07T12:57:01.285Z,1022.70
2022-10-07T13:02:08.633Z,1022.69
2022-10-07T13:07:15.637Z,1022.61
2022-10-07T13:12:22.830Z,1022.63
2022-10-07T13:17:30.053Z,1022.61
2022-10-07T13:22:37.238Z,1022.59
2022-10-07T13:27:44.402Z,1022.52
2022-10-07T13:32:51.647Z,1022.44
2022-10-07T13:37:58.856Z,1022.42
2022-10-07T13:43:06.056Z,1022.36
2022-10-07T13:48:13.294Z,1022.34
2022-10-07T13:53:20.478Z,1022.31
2022-10-07T13:58:27.674Z,1022.33
2022-10-07T14:03:34.869Z,1022.31
2022-10-07T14:08:42.087Z,1022.21
2022-10-07T14:13:49.288Z,1022.22
2022-10-07T14:18:56.581Z,1022.18
2022-10-07T14:24:03.695Z,1022.15
2022-10-07T14:29:10.902Z,1022.16
2022-10-07T14:34:18.234Z,1022.10
2022-10-07T14:39:25.448Z,1022.09
2022-10-07T14:44:32.630Z,1022.04
2022-10-07T14:49:39.874Z,1021.96
2022-10-07T14:54:47.126Z,1021.94
2022-10-07T14:59:54.324Z,1021.83
2022-10-07T15:05:01.703Z,1021.74
2022-10-07T15:10:08.782Z,1021.68
2022-10-07T15:15:16.082Z,1021.72
2022-10-07T15:20:23.305Z,1021.65
2022-10-07T15:25:30.487Z,1021.61
2022-10-07T15:30:39.563Z,1021.54
2022-10-07T15:35:44.997Z,1021.56
2022-10-07T15:40:55.540Z,1021.52
2022-10-07T15:46:02.953Z,1021.52
2022-10-07T15:51:09.998Z,1021.40
2022-10-07T15:56:17.190Z,1021.37
2022-10-07T16:01:24.428Z,1021.33
2022-10-07T16:06:31.608Z,1021.28
2022-10-07T16:11:38.801Z,1021.21
2022-10-07T16:16:46.022Z,1021.21
2022-10-07T16:21:53.190Z,1021.20
2022-10-07T16:27:00.397Z,1021.21
2022-10-07T16:32:07.660Z,1021.20
2022-10-07T16:37:15.074Z,1021.20
2022-10-07T16:42:22.113Z,1021.23
2022-10-07T16:47:29.265Z,1021.23
2022-10-07T16:52:36.520Z,1021.21
2022-10-07T16:57:44.153Z,1021.21
2022-10-07T17:02:54.097Z,1021.23
2022-10-07T17:08:01.343Z,1021.25
2022-10-07T17:13:08.497Z,1021.31
2022-10-07T17:18:15.641Z,1021.30
2022-10-07T17:23:23.201Z,1021.35
2022-10-07T17:28:30.424Z,1021.31
2022-10-07T17:33:37.615Z,1021.34
2022-10-07T17:38:44.824Z,1021.36
2022-10-07T17:43:51.947Z,1021.36
2022-10-07T17:48:59.174Z,1021.33
2022-10-07T17:54:06.510Z,1021.40
2022-10-07T17:59:13.545Z,1021.44
2022-10-07T18:04:24.765Z,1021.41
2022-10-07T18:09:28.104Z,1021.43
2022-10-07T18:14:35.189Z,1021.37
2022-10-07T18:19:42.511Z,1021.37
2022-10-07T18:24:49.756Z,1021.36
2022-10-07T18:29:56.899Z,1021.28
2022-10-07T18:35:04.130Z,1021.28
2022-10-07T18:40:11.345Z,1021.28
2022-10-07T18:45:18.540Z,1021.27
2022-10-07T18:50:28.119Z,1021.26
2022-10-07T18:55:33.662Z,1021.28
2022-10-07T19:00:41.344Z,1021.23
2022-10-07T19:05:48.762Z,1021.25
2022-10-07T19:10:56.402Z,1021.30
2022-10-07T19:16:04.551Z,1021.33
2022-10-07T19:21:11.613Z,1021.24
2022-10-07T19:26:21.310Z,1021.29
2022-10-07T19:31:26.126Z,1021.27
2022-10-07T19:36:33.627Z,1021.29
2022-10-07T19:41:41.263Z,1021.25
2022-10-07T19:46:48.560Z,1021.27
2022-10-07T19:51:56.067Z,1021.24
2022-10-07T19:57:03.477Z,1021.21
2022-10-07T20:02:10.728Z,1021.21
2022-10-07T20:07:17.823Z,1021.23
2022-10-07T20:12:25.066Z,1021.22
2022-10-07T20:17:32.193Z,1021.17
2022-10-07T20:22:39.399Z,1021.16
2022-10-07T20:27:46.970Z,1021.07
2022-10-07T20:32:53.874Z,1021.06
2022-10-07T20:38:01.022Z,1021.04
2022-10-07T20:43:08.239Z,1021.06
2022-10-07T20:48:15.469Z,1021.11
2022-10-07T20:53:22.671Z,1021.21
2022-10-07T20:58:29.959Z,1021.14
2022-10-07T21:03:37.125Z,1021.13
2022-10-07T21:08:44.318Z,1021.12
2022-10-07T21:13:51.565Z,1021.15
2022-10-07T21:18:58.763Z,1021.10
2022-10-07T21:24:05.952Z,1021.10
2022-10-07T21:29:13.160Z,1021.04
2022-10-07T21:34:20.431Z,1021.08
2022-10-07T21:39:27.779Z,1021.09
2022-10-07T21:44:34.997Z,1021.08
2022-10-07T21:49:42.178Z,1021.12
2022-10-07T21:54:49.339Z,1021.10
2022-10-07T21:59:56.622Z,1021.06
2022-10-07T22:05:03.801Z,1021.04
2022-10-07T22:10:10.996Z,1021.04
2022-10-07T22:15:18.226Z,1021.03
2022-10-07T22:20:25.366Z,1021.02
2022-10-07T22:25:32.555Z,1021.03
2022-10-07T22:30:39.854Z,1021.05
2022-10-07T22:35:46.989Z,1021.03
2022-10-07T22:40:54.226Z,1021.00
2022-10-07T22:46:01.529Z,1020.95
2022-10-07T22:51:08.645Z,1020.89
2022-10-07T22:56:15.902Z,1020.81
2022-10-07T23:01:23.103Z,1020.81
2022-10-07T23:06:30.384Z,1020.76
2022-10-07T23:11:37.589Z,1020.79
2022-10-07T23:16:44.841Z,1020.74
2022-10-07T23:21:51.974Z,1020.74
2022-10-07T23:26:59.139Z,1020.72
2022-10-07T23:32:06.399Z,1020.77
2022-10-07T23:37:14.433Z,1020.77
2022-10-07T23:42:21.603Z,1020.72
2022-10-07T23:47:28.834Z,1020.67
2022-10-07T23:52:36.041Z,1020.62
2022-10-07T23:57:43.225Z,1020.65
